sensor_id;sensor_type;location;lat;lon;timestamp;P1;durP1;ratioP1;P2;durP2;ratioP2
43086;SDS011;28708;52.224;6.924;2023-05-10T00:00:38;21.17;;;14.40;;
43086;SDS011;28708;52.224;6.924;2023-05-10T00:03:04;21.07;;;14.10;;
43086;SDS011;28708;52.224;6.924;2023-05-10T00:05:30;21.97;;;14.97;;
43086;SDS011;28708;52.224;6.924;2023-05-10T00:07:56;18.87;;;12.70;;
43086;SDS011;28708;52.224;6.924;2023-05-10T00:10:22;15.57;;;10.73;;
43086;SDS011;28708;52.224;6.924;2023-05-10T00:12:48;13.37;;;9.43;;
43086;SDS011;28708;52.224;6.924;2023-05-10T00:15:13;14.23;;;9.57;;
43086;SDS011;28708;52.224;6.924;2023-05-10T00:17:39;10.63;;;7.10;;
43086;SDS011;28708;52.224;6.924;2023-05-10T00:20:06;11.53;;;7.13;;
43086;SDS011;28708;52.224;6.924;2023-05-10T00:22:32;9.83;;;7.00;;
43086;SDS011;28708;52.224;6.924;2023-05-10T00:24:58;11.17;;;6.93;;
43086;SDS011;28708;52.224;6.924;2023-05-10T00:27:24;10.33;;;6.40;;
43086;SDS011;28708;52.224;6.924;2023-05-10T00:29:50;10.40;;;5.33;;
43086;SDS011;28708;52.224;6.924;2023-05-10T00:32:15;12.07;;;5.37;;
43086;SDS011;28708;52.224;6.924;2023-05-10T00:34:42;6.77;;;4.90;;
43086;SDS011;28708;52.224;6.924;2023-05-10T00:37:07;6.47;;;4.50;;
43086;SDS011;28708;52.224;6.924;2023-05-10T00:39:33;8.80;;;5.23;;
43086;SDS011;28708;52.224;6.924;2023-05-10T00:41:59;5.57;;;4.20;;
43086;SDS011;28708;52.224;6.924;2023-05-10T00:44:25;5.27;;;4.23;;
43086;SDS011;28708;52.224;6.924;2023-05-10T00:46:51;6.03;;;4.60;;
43086;SDS011;28708;52.224;6.924;2023-05-10T00:49:18;7.00;;;5.00;;
43086;SDS011;28708;52.224;6.924;2023-05-10T00:51:44;7.13;;;5.20;;
43086;SDS011;28708;52.224;6.924;2023-05-10T00:54:14;7.67;;;5.63;;
43086;SDS011;28708;52.224;6.924;2023-05-10T00:56:40;9.77;;;6.28;;
43086;SDS011;28708;52.224;6.924;2023-05-10T00:59:07;9.73;;;6.63;;
43086;SDS011;28708;52.224;6.924;2023-05-10T01:01:35;9.50;;;6.67;;
43086;SDS011;28708;52.224;6.924;2023-05-10T01:04:01;9.97;;;6.40;;
43086;SDS011;28708;52.224;6.924;2023-05-10T01:06:28;13.33;;;6.53;;
43086;SDS011;28708;52.224;6.924;2023-05-10T01:08:54;8.23;;;6.50;;
43086;SDS011;28708;52.224;6.924;2023-05-10T01:11:20;10.43;;;6.77;;
43086;SDS011;28708;52.224;6.924;2023-05-10T01:13:47;8.53;;;6.53;;
43086;SDS011;28708;52.224;6.924;2023-05-10T01:16:19;9.10;;;7.00;;
43086;SDS011;28708;52.224;6.924;2023-05-10T01:18:47;9.33;;;7.07;;
43086;SDS011;28708;52.224;6.924;2023-05-10T01:21:32;8.83;;;6.50;;
43086;SDS011;28708;52.224;6.924;2023-05-10T01:27:29;10.33;;;6.63;;
43086;SDS011;28708;52.224;6.924;2023-05-10T01:30:29;11.87;;;6.83;;
43086;SDS011;28708;52.224;6.924;2023-05-10T01:35:55;11.93;;;8.27;;
43086;SDS011;28708;52.224;6.924;2023-05-10T01:38:29;12.25;;;8.10;;
43086;SDS011;28708;52.224;6.924;2023-05-10T01:44:00;10.47;;;7.37;;
43086;SDS011;28708;52.224;6.924;2023-05-10T01:46:36;10.20;;;7.70;;
43086;SDS011;28708;52.224;6.924;2023-05-10T01:49:06;10.30;;;7.20;;
43086;SDS011;28708;52.224;6.924;2023-05-10T01:52:00;9.63;;;7.80;;
43086;SDS011;28708;52.224;6.924;2023-05-10T01:54:24;11.00;;;8.77;;
43086;SDS011;28708;52.224;6.924;2023-05-10T01:56:52;12.07;;;8.80;;
43086;SDS011;28708;52.224;6.924;2023-05-10T01:59:24;13.60;;;9.53;;
43086;SDS011;28708;52.224;6.924;2023-05-10T02:01:54;14.18;;;9.85;;
43086;SDS011;28708;52.224;6.924;2023-05-10T02:06:51;15.07;;;10.43;;
43086;SDS011;28708;52.224;6.924;2023-05-10T02:09:18;13.90;;;9.30;;
43086;SDS011;28708;52.224;6.924;2023-05-10T02:11:45;14.90;;;10.63;;
43086;SDS011;28708;52.224;6.924;2023-05-10T02:14:13;14.13;;;10.03;;
43086;SDS011;28708;52.224;6.924;2023-05-10T02:16:41;16.53;;;11.73;;
43086;SDS011;28708;52.224;6.924;2023-05-10T02:19:08;14.70;;;10.40;;
43086;SDS011;28708;52.224;6.924;2023-05-10T02:21:35;15.53;;;10.93;;
43086;SDS011;28708;52.224;6.924;2023-05-10T02:24:02;15.30;;;11.10;;
43086;SDS011;28708;52.224;6.924;2023-05-10T02:26:29;13.80;;;10.10;;
43086;SDS011;28708;52.224;6.924;2023-05-10T02:28:58;18.63;;;11.40;;
43086;SDS011;28708;52.224;6.924;2023-05-10T02:31:26;12.67;;;9.53;;
43086;SDS011;28708;52.224;6.924;2023-05-10T02:33:51;15.13;;;11.70;;
43086;SDS011;28708;52.224;6.924;2023-05-10T02:36:18;18.43;;;13.43;;
43086;SDS011;28708;52.224;6.924;2023-05-10T02:38:46;17.03;;;12.33;;
43086;SDS011;28708;52.224;6.924;2023-05-10T02:41:15;14.67;;;11.20;;
43086;SDS011;28708;52.224;6.924;2023-05-10T02:43:41;17.00;;;11.33;;
43086;SDS011;28708;52.224;6.924;2023-05-10T02:46:08;16.50;;;12.50;;
43086;SDS011;28708;52.224;6.924;2023-05-10T02:48:34;16.00;;;11.83;;
43086;SDS011;28708;52.224;6.924;2023-05-10T02:51:00;15.97;;;11.67;;
43086;SDS011;28708;52.224;6.924;2023-05-10T02:55:58;16.43;;;11.60;;
43086;SDS011;28708;52.224;6.924;2023-05-10T02:58:26;15.17;;;11.20;;
43086;SDS011;28708;52.224;6.924;2023-05-10T03:00:52;15.30;;;11.47;;
43086;SDS011;28708;52.224;6.924;2023-05-10T03:03:18;15.57;;;11.70;;
43086;SDS011;28708;52.224;6.924;2023-05-10T03:05:46;16.70;;;11.60;;
43086;SDS011;28708;52.224;6.924;2023-05-10T03:08:12;20.40;;;11.40;;
43086;SDS011;28708;52.224;6.924;2023-05-10T03:10:41;16.00;;;11.90;;
43086;SDS011;28708;52.224;6.924;2023-05-10T03:13:18;18.33;;;13.00;;
43086;SDS011;28708;52.224;6.924;2023-05-10T03:16:14;20.73;;;12.73;;
43086;SDS011;28708;52.224;6.924;2023-05-10T03:18:44;20.23;;;13.10;;
43086;SDS011;28708;52.224;6.924;2023-05-10T03:21:16;19.70;;;12.30;;
43086;SDS011;28708;52.224;6.924;2023-05-10T03:23:55;18.33;;;12.60;;
43086;SDS011;28708;52.224;6.924;2023-05-10T03:26:27;20.53;;;13.70;;
43086;SDS011;28708;52.224;6.924;2023-05-10T03:29:02;19.03;;;12.10;;
43086;SDS011;28708;52.224;6.924;2023-05-10T03:31:31;19.73;;;13.17;;
43086;SDS011;28708;52.224;6.924;2023-05-10T03:33:57;19.37;;;12.80;;
43086;SDS011;28708;52.224;6.924;2023-05-10T03:36:25;21.77;;;13.77;;
43086;SDS011;28708;52.224;6.924;2023-05-10T03:38:51;20.70;;;13.50;;
43086;SDS011;28708;52.224;6.924;2023-05-10T03:41:17;24.80;;;14.57;;
43086;SDS011;28708;52.224;6.924;2023-05-10T03:43:43;23.93;;;14.70;;
43086;SDS011;28708;52.224;6.924;2023-05-10T03:46:08;30.07;;;16.63;;
43086;SDS011;28708;52.224;6.924;2023-05-10T03:48:34;30.57;;;17.70;;
43086;SDS011;28708;52.224;6.924;2023-05-10T03:51:00;31.83;;;18.50;;
43086;SDS011;28708;52.224;6.924;2023-05-10T03:53:26;33.83;;;19.63;;
43086;SDS011;28708;52.224;6.924;2023-05-10T03:55:52;39.13;;;21.33;;
43086;SDS011;28708;52.224;6.924;2023-05-10T03:58:17;39.87;;;22.03;;
43086;SDS011;28708;52.224;6.924;2023-05-10T04:00:43;37.90;;;21.83;;
43086;SDS011;28708;52.224;6.924;2023-05-10T04:03:11;43.53;;;24.03;;
43086;SDS011;28708;52.224;6.924;2023-05-10T04:05:37;45.03;;;23.97;;
43086;SDS011;28708;52.224;6.924;2023-05-10T04:08:03;42.17;;;22.53;;
43086;SDS011;28708;52.224;6.924;2023-05-10T04:10:29;47.43;;;23.57;;
43086;SDS011;28708;52.224;6.924;2023-05-10T04:12:55;48.53;;;24.87;;
43086;SDS011;28708;52.224;6.924;2023-05-10T04:15:21;48.33;;;25.63;;
43086;SDS011;28708;52.224;6.924;2023-05-10T04:17:46;48.43;;;27.00;;
43086;SDS011;28708;52.224;6.924;2023-05-10T04:20:12;45.63;;;24.97;;
43086;SDS011;28708;52.224;6.924;2023-05-10T04:22:38;53.00;;;27.27;;
43086;SDS011;28708;52.224;6.924;2023-05-10T04:25:04;51.53;;;28.63;;
43086;SDS011;28708;52.224;6.924;2023-05-10T04:27:31;53.43;;;27.93;;
43086;SDS011;28708;52.224;6.924;2023-05-10T04:29:56;48.43;;;28.17;;
43086;SDS011;28708;52.224;6.924;2023-05-10T04:32:22;51.80;;;26.53;;
43086;SDS011;28708;52.224;6.924;2023-05-10T04:34:48;56.33;;;29.17;;
43086;SDS011;28708;52.224;6.924;2023-05-10T04:37:15;46.03;;;26.80;;
43086;SDS011;28708;52.224;6.924;2023-05-10T04:39:41;54.47;;;27.63;;
43086;SDS011;28708;52.224;6.924;2023-05-10T04:42:07;55.73;;;28.20;;
43086;SDS011;28708;52.224;6.924;2023-05-10T04:44:33;62.10;;;29.13;;
43086;SDS011;28708;52.224;6.924;2023-05-10T04:46:58;61.97;;;29.63;;
43086;SDS011;28708;52.224;6.924;2023-05-10T04:49:24;63.50;;;29.47;;
43086;SDS011;28708;52.224;6.924;2023-05-10T04:51:50;62.87;;;29.40;;
43086;SDS011;28708;52.224;6.924;2023-05-10T04:54:16;61.53;;;31.30;;
43086;SDS011;28708;52.224;6.924;2023-05-10T04:56:41;71.47;;;31.53;;
43086;SDS011;28708;52.224;6.924;2023-05-10T04:59:07;67.60;;;30.77;;
43086;SDS011;28708;52.224;6.924;2023-05-10T05:01:32;72.87;;;33.50;;
43086;SDS011;28708;52.224;6.924;2023-05-10T05:03:58;74.03;;;33.53;;
43086;SDS011;28708;52.224;6.924;2023-05-10T05:06:24;72.97;;;35.10;;
43086;SDS011;28708;52.224;6.924;2023-05-10T05:08:50;75.83;;;33.53;;
43086;SDS011;28708;52.224;6.924;2023-05-10T05:11:17;76.50;;;34.70;;
43086;SDS011;28708;52.224;6.924;2023-05-10T05:13:43;71.33;;;33.43;;
43086;SDS011;28708;52.224;6.924;2023-05-10T05:16:08;74.63;;;35.70;;
43086;SDS011;28708;52.224;6.924;2023-05-10T05:18:35;72.43;;;35.17;;
43086;SDS011;28708;52.224;6.924;2023-05-10T05:21:01;75.93;;;33.83;;
43086;SDS011;28708;52.224;6.924;2023-05-10T05:23:27;75.37;;;34.83;;
43086;SDS011;28708;52.224;6.924;2023-05-10T05:25:52;77.00;;;36.97;;
43086;SDS011;28708;52.224;6.924;2023-05-10T05:28:19;84.00;;;36.23;;
43086;SDS011;28708;52.224;6.924;2023-05-10T05:30:45;79.93;;;35.37;;
43086;SDS011;28708;52.224;6.924;2023-05-10T05:33:11;79.53;;;36.17;;
43086;SDS011;28708;52.224;6.924;2023-05-10T05:35:38;74.27;;;35.73;;
43086;SDS011;28708;52.224;6.924;2023-05-10T05:38:04;84.90;;;36.90;;
43086;SDS011;28708;52.224;6.924;2023-05-10T05:40:30;76.80;;;36.90;;
43086;SDS011;28708;52.224;6.924;2023-05-10T05:42:56;79.13;;;37.57;;
43086;SDS011;28708;52.224;6.924;2023-05-10T05:45:21;73.77;;;36.23;;
43086;SDS011;28708;52.224;6.924;2023-05-10T05:47:47;79.23;;;36.77;;
43086;SDS011;28708;52.224;6.924;2023-05-10T05:50:12;85.03;;;37.47;;
43086;SDS011;28708;52.224;6.924;2023-05-10T05:52:38;77.43;;;36.20;;
43086;SDS011;28708;52.224;6.924;2023-05-10T05:55:04;78.73;;;38.17;;
43086;SDS011;28708;52.224;6.924;2023-05-10T05:57:30;79.80;;;37.23;;
43086;SDS011;28708;52.224;6.924;2023-05-10T05:59:56;70.17;;;34.87;;
43086;SDS011;28708;52.224;6.924;2023-05-10T06:02:21;77.27;;;36.57;;
43086;SDS011;28708;52.224;6.924;2023-05-10T06:04:47;75.07;;;38.27;;
43086;SDS011;28708;52.224;6.924;2023-05-10T06:07:12;75.97;;;37.47;;
43086;SDS011;28708;52.224;6.924;2023-05-10T06:09:38;70.33;;;36.73;;
43086;SDS011;28708;52.224;6.924;2023-05-10T06:12:04;71.43;;;34.27;;
43086;SDS011;28708;52.224;6.924;2023-05-10T06:14:30;67.83;;;36.13;;
43086;SDS011;28708;52.224;6.924;2023-05-10T06:16:55;68.63;;;32.73;;
43086;SDS011;28708;52.224;6.924;2023-05-10T06:19:21;70.63;;;36.60;;
43086;SDS011;28708;52.224;6.924;2023-05-10T06:21:47;63.67;;;34.20;;
43086;SDS011;28708;52.224;6.924;2023-05-10T06:24:12;67.93;;;34.03;;
43086;SDS011;28708;52.224;6.924;2023-05-10T06:26:38;68.50;;;35.80;;
43086;SDS011;28708;52.224;6.924;2023-05-10T06:29:03;61.57;;;32.33;;
43086;SDS011;28708;52.224;6.924;2023-05-10T06:31:29;70.33;;;36.33;;
43086;SDS011;28708;52.224;6.924;2023-05-10T06:33:55;65.13;;;33.57;;
43086;SDS011;28708;52.224;6.924;2023-05-10T06:36:20;66.50;;;35.10;;
43086;SDS011;28708;52.224;6.924;2023-05-10T06:38:47;65.13;;;34.47;;
43086;SDS011;28708;52.224;6.924;2023-05-10T06:41:12;64.20;;;33.17;;
43086;SDS011;28708;52.224;6.924;2023-05-10T06:43:38;67.00;;;34.70;;
43086;SDS011;28708;52.224;6.924;2023-05-10T06:46:06;65.57;;;32.63;;
43086;SDS011;28708;52.224;6.924;2023-05-10T06:48:32;66.43;;;33.63;;
43086;SDS011;28708;52.224;6.924;2023-05-10T06:50:58;67.57;;;34.37;;
43086;SDS011;28708;52.224;6.924;2023-05-10T06:53:23;67.03;;;34.97;;
43086;SDS011;28708;52.224;6.924;2023-05-10T06:55:49;70.07;;;37.17;;
43086;SDS011;28708;52.224;6.924;2023-05-10T06:58:15;62.37;;;33.57;;
43086;SDS011;28708;52.224;6.924;2023-05-10T07:00:41;76.27;;;35.27;;
43086;SDS011;28708;52.224;6.924;2023-05-10T07:03:09;66.20;;;33.97;;
43086;SDS011;28708;52.224;6.924;2023-05-10T07:05:35;64.23;;;34.50;;
43086;SDS011;28708;52.224;6.924;2023-05-10T07:08:01;65.00;;;34.47;;
43086;SDS011;28708;52.224;6.924;2023-05-10T07:10:26;70.23;;;34.67;;
43086;SDS011;28708;52.224;6.924;2023-05-10T07:12:52;62.47;;;34.27;;
43086;SDS011;28708;52.224;6.924;2023-05-10T07:15:17;66.70;;;34.53;;
43086;SDS011;28708;52.224;6.924;2023-05-10T07:17:43;63.43;;;33.27;;
43086;SDS011;28708;52.224;6.924;2023-05-10T07:20:09;56.13;;;30.77;;
43086;SDS011;28708;52.224;6.924;2023-05-10T07:22:35;56.83;;;30.93;;
43086;SDS011;28708;52.224;6.924;2023-05-10T07:25:01;54.97;;;31.50;;
43086;SDS011;28708;52.224;6.924;2023-05-10T07:27:27;60.47;;;32.80;;
43086;SDS011;28708;52.224;6.924;2023-05-10T07:29:52;51.70;;;29.23;;
43086;SDS011;28708;52.224;6.924;2023-05-10T07:32:19;58.33;;;32.63;;
43086;SDS011;28708;52.224;6.924;2023-05-10T07:34:45;59.10;;;31.73;;
43086;SDS011;28708;52.224;6.924;2023-05-10T07:37:11;57.50;;;32.37;;
43086;SDS011;28708;52.224;6.924;2023-05-10T07:39:37;58.50;;;32.10;;
43086;SDS011;28708;52.224;6.924;2023-05-10T07:42:06;57.60;;;30.60;;
43086;SDS011;28708;52.224;6.924;2023-05-10T07:44:32;57.10;;;29.95;;
43086;SDS011;28708;52.224;6.924;2023-05-10T07:46:57;58.37;;;30.97;;
43086;SDS011;28708;52.224;6.924;2023-05-10T07:49:23;54.80;;;30.60;;
43086;SDS011;28708;52.224;6.924;2023-05-10T07:51:51;56.73;;;30.93;;
43086;SDS011;28708;52.224;6.924;2023-05-10T07:54:17;52.03;;;28.13;;
43086;SDS011;28708;52.224;6.924;2023-05-10T07:56:42;54.37;;;29.67;;
43086;SDS011;28708;52.224;6.924;2023-05-10T07:59:18;52.53;;;27.38;;
43086;SDS011;28708;52.224;6.924;2023-05-10T08:01:43;53.70;;;27.53;;
43086;SDS011;28708;52.224;6.924;2023-05-10T08:04:09;43.33;;;24.80;;
43086;SDS011;28708;52.224;6.924;2023-05-10T08:06:36;47.03;;;24.53;;
43086;SDS011;28708;52.224;6.924;2023-05-10T08:09:02;38.23;;;21.63;;
43086;SDS011;28708;52.224;6.924;2023-05-10T08:11:27;42.97;;;23.27;;
43086;SDS011;28708;52.224;6.924;2023-05-10T08:13:53;43.07;;;22.07;;
43086;SDS011;28708;52.224;6.924;2023-05-10T08:16:19;43.20;;;23.03;;
43086;SDS011;28708;52.224;6.924;2023-05-10T08:18:45;40.77;;;20.83;;
43086;SDS011;28708;52.224;6.924;2023-05-10T08:21:12;38.50;;;21.07;;
43086;SDS011;28708;52.224;6.924;2023-05-10T08:23:38;39.53;;;19.30;;
43086;SDS011;28708;52.224;6.924;2023-05-10T08:26:04;38.77;;;21.63;;
43086;SDS011;28708;52.224;6.924;2023-05-10T08:28:30;37.70;;;21.27;;
43086;SDS011;28708;52.224;6.924;2023-05-10T08:30:56;38.93;;;21.10;;
43086;SDS011;28708;52.224;6.924;2023-05-10T08:33:22;39.47;;;21.60;;
43086;SDS011;28708;52.224;6.924;2023-05-10T08:35:47;38.27;;;20.73;;
43086;SDS011;28708;52.224;6.924;2023-05-10T08:38:13;42.87;;;20.37;;
43086;SDS011;28708;52.224;6.924;2023-05-10T08:40:41;35.93;;;20.33;;
43086;SDS011;28708;52.224;6.924;2023-05-10T08:43:08;47.80;;;22.90;;
43086;SDS011;28708;52.224;6.924;2023-05-10T08:45:39;48.80;;;24.70;;
43086;SDS011;28708;52.224;6.924;2023-05-10T08:48:06;46.23;;;22.37;;
43086;SDS011;28708;52.224;6.924;2023-05-10T08:50:34;46.37;;;23.90;;
43086;SDS011;28708;52.224;6.924;2023-05-10T08:53:01;41.93;;;22.73;;
43086;SDS011;28708;52.224;6.924;2023-05-10T08:55:34;41.83;;;23.10;;
43086;SDS011;28708;52.224;6.924;2023-05-10T08:58:02;43.20;;;21.70;;
43086;SDS011;28708;52.224;6.924;2023-05-10T09:00:29;42.00;;;22.90;;
43086;SDS011;28708;52.224;6.924;2023-05-10T09:02:55;40.83;;;22.67;;
43086;SDS011;28708;52.224;6.924;2023-05-10T09:05:22;47.20;;;22.97;;
43086;SDS011;28708;52.224;6.924;2023-05-10T09:07:48;41.07;;;21.20;;
43086;SDS011;28708;52.224;6.924;2023-05-10T09:10:14;47.20;;;22.40;;
43086;SDS011;28708;52.224;6.924;2023-05-10T09:12:40;41.10;;;21.47;;
43086;SDS011;28708;52.224;6.924;2023-05-10T09:15:06;44.27;;;22.07;;
43086;SDS011;28708;52.224;6.924;2023-05-10T09:17:34;41.93;;;21.80;;
43086;SDS011;28708;52.224;6.924;2023-05-10T09:20:00;41.20;;;21.27;;
43086;SDS011;28708;52.224;6.924;2023-05-10T09:22:27;48.73;;;22.40;;
43086;SDS011;28708;52.224;6.924;2023-05-10T09:27:32;43.93;;;21.30;;
43086;SDS011;28708;52.224;6.924;2023-05-10T09:29:58;48.37;;;22.90;;
43086;SDS011;28708;52.224;6.924;2023-05-10T09:32:40;44.23;;;21.17;;
43086;SDS011;28708;52.224;6.924;2023-05-10T09:35:11;39.27;;;20.47;;
43086;SDS011;28708;52.224;6.924;2023-05-10T09:37:39;40.47;;;20.73;;
43086;SDS011;28708;52.224;6.924;2023-05-10T09:40:12;41.33;;;20.77;;
43086;SDS011;28708;52.224;6.924;2023-05-10T09:42:42;44.73;;;21.67;;
43086;SDS011;28708;52.224;6.924;2023-05-10T09:45:15;41.37;;;20.53;;
43086;SDS011;28708;52.224;6.924;2023-05-10T09:47:41;40.00;;;20.87;;
43086;SDS011;28708;52.224;6.924;2023-05-10T09:50:07;44.43;;;21.97;;
43086;SDS011;28708;52.224;6.924;2023-05-10T09:55:38;40.40;;;19.83;;
43086;SDS011;28708;52.224;6.924;2023-05-10T09:58:05;35.57;;;18.47;;
43086;SDS011;28708;52.224;6.924;2023-05-10T10:00:35;39.10;;;19.20;;
43086;SDS011;28708;52.224;6.924;2023-05-10T10:03:02;45.20;;;19.40;;
43086;SDS011;28708;52.224;6.924;2023-05-10T10:05:32;34.57;;;18.13;;
43086;SDS011;28708;52.224;6.924;2023-05-10T10:08:00;41.23;;;18.70;;
43086;SDS011;28708;52.224;6.924;2023-05-10T10:10:29;36.43;;;17.63;;
43086;SDS011;28708;52.224;6.924;2023-05-10T10:12:56;37.90;;;17.67;;
43086;SDS011;28708;52.224;6.924;2023-05-10T10:15:23;36.00;;;17.23;;
43086;SDS011;28708;52.224;6.924;2023-05-10T10:17:50;31.40;;;16.90;;
43086;SDS011;28708;52.224;6.924;2023-05-10T10:20:16;31.97;;;15.80;;
43086;SDS011;28708;52.224;6.924;2023-05-10T10:22:43;30.40;;;14.60;;
43086;SDS011;28708;52.224;6.924;2023-05-10T10:25:10;31.40;;;14.73;;
43086;SDS011;28708;52.224;6.924;2023-05-10T10:30:39;33.43;;;17.03;;
43086;SDS011;28708;52.224;6.924;2023-05-10T10:35:43;31.30;;;16.93;;
43086;SDS011;28708;52.224;6.924;2023-05-10T10:38:12;29.53;;;15.70;;
43086;SDS011;28708;52.224;6.924;2023-05-10T10:40:38;30.77;;;16.60;;
43086;SDS011;28708;52.224;6.924;2023-05-10T10:46:09;32.83;;;16.70;;
43086;SDS011;28708;52.224;6.924;2023-05-10T10:51:05;38.67;;;17.60;;
43086;SDS011;28708;52.224;6.924;2023-05-10T10:53:30;33.17;;;16.87;;
43086;SDS011;28708;52.224;6.924;2023-05-10T10:56:12;35.13;;;18.33;;
43086;SDS011;28708;52.224;6.924;2023-05-10T10:58:40;29.80;;;16.47;;
43086;SDS011;28708;52.224;6.924;2023-05-10T11:01:13;30.03;;;15.70;;
43086;SDS011;28708;52.224;6.924;2023-05-10T11:03:40;27.70;;;15.70;;
43086;SDS011;28708;52.224;6.924;2023-05-10T11:06:28;28.38;;;15.88;;
43086;SDS011;28708;52.224;6.924;2023-05-10T11:08:56;27.30;;;14.40;;
43086;SDS011;28708;52.224;6.924;2023-05-10T11:11:22;27.17;;;14.13;;
43086;SDS011;28708;52.224;6.924;2023-05-10T11:13:48;23.60;;;14.00;;
43086;SDS011;28708;52.224;6.924;2023-05-10T11:16:15;28.40;;;14.75;;
43086;SDS011;28708;52.224;6.924;2023-05-10T11:18:51;26.38;;;14.65;;
43086;SDS011;28708;52.224;6.924;2023-05-10T11:21:18;23.45;;;13.90;;
43086;SDS011;28708;52.224;6.924;2023-05-10T11:23:47;25.92;;;13.23;;
43086;SDS011;28708;52.224;6.924;2023-05-10T11:26:15;22.03;;;13.43;;
43086;SDS011;28708;52.224;6.924;2023-05-10T11:28:41;21.93;;;12.30;;
43086;SDS011;28708;52.224;6.924;2023-05-10T11:31:13;20.92;;;11.82;;
43086;SDS011;28708;52.224;6.924;2023-05-10T11:33:46;21.63;;;12.03;;
43086;SDS011;28708;52.224;6.924;2023-05-10T11:36:18;22.63;;;12.50;;
43086;SDS011;28708;52.224;6.924;2023-05-10T11:38:56;22.43;;;12.80;;
43086;SDS011;28708;52.224;6.924;2023-05-10T11:41:22;21.63;;;13.17;;
43086;SDS011;28708;52.224;6.924;2023-05-10T11:43:49;28.93;;;13.60;;
43086;SDS011;28708;52.224;6.924;2023-05-10T11:46:18;19.03;;;11.97;;
43086;SDS011;28708;52.224;6.924;2023-05-10T11:48:45;24.07;;;12.97;;
43086;SDS011;28708;52.224;6.924;2023-05-10T11:51:14;24.23;;;13.27;;
43086;SDS011;28708;52.224;6.924;2023-05-10T11:53:40;24.80;;;12.53;;
43086;SDS011;28708;52.224;6.924;2023-05-10T11:56:06;21.83;;;12.63;;
43086;SDS011;28708;52.224;6.924;2023-05-10T11:58:33;19.17;;;11.73;;
43086;SDS011;28708;52.224;6.924;2023-05-10T12:01:00;18.70;;;12.37;;
43086;SDS011;28708;52.224;6.924;2023-05-10T12:03:29;20.00;;;12.57;;
43086;SDS011;28708;52.224;6.924;2023-05-10T12:05:55;17.42;;;11.05;;
43086;SDS011;28708;52.224;6.924;2023-05-10T12:08:25;22.13;;;11.07;;
43086;SDS011;28708;52.224;6.924;2023-05-10T12:11:08;16.53;;;10.07;;
43086;SDS011;28708;52.224;6.924;2023-05-10T12:13:40;16.67;;;9.33;;
43086;SDS011;28708;52.224;6.924;2023-05-10T12:16:14;18.37;;;11.03;;
43086;SDS011;28708;52.224;6.924;2023-05-10T12:18:55;19.25;;;10.50;;
43086;SDS011;28708;52.224;6.924;2023-05-10T12:21:22;16.67;;;10.20;;
43086;SDS011;28708;52.224;6.924;2023-05-10T12:23:50;19.27;;;10.77;;
43086;SDS011;28708;52.224;6.924;2023-05-10T12:26:17;18.87;;;10.93;;
43086;SDS011;28708;52.224;6.924;2023-05-10T12:28:43;17.53;;;10.97;;
43086;SDS011;28708;52.224;6.924;2023-05-10T12:31:09;18.00;;;10.03;;
43086;SDS011;28708;52.224;6.924;2023-05-10T12:33:39;17.73;;;10.67;;
43086;SDS011;28708;52.224;6.924;2023-05-10T12:36:14;15.90;;;10.33;;
43086;SDS011;28708;52.224;6.924;2023-05-10T12:38:41;21.23;;;12.50;;
43086;SDS011;28708;52.224;6.924;2023-05-10T12:41:09;16.17;;;10.83;;
43086;SDS011;28708;52.224;6.924;2023-05-10T12:43:36;20.50;;;10.87;;
43086;SDS011;28708;52.224;6.924;2023-05-10T12:46:09;17.37;;;11.03;;
43086;SDS011;28708;52.224;6.924;2023-05-10T12:48:37;18.13;;;10.63;;
43086;SDS011;28708;52.224;6.924;2023-05-10T12:51:04;15.27;;;9.43;;
43086;SDS011;28708;52.224;6.924;2023-05-10T12:53:30;15.93;;;9.17;;
43086;SDS011;28708;52.224;6.924;2023-05-10T12:55:56;15.33;;;9.70;;
43086;SDS011;28708;52.224;6.924;2023-05-10T12:58:22;14.37;;;9.17;;
43086;SDS011;28708;52.224;6.924;2023-05-10T13:00:48;19.37;;;9.67;;
43086;SDS011;28708;52.224;6.924;2023-05-10T13:03:14;12.60;;;8.20;;
43086;SDS011;28708;52.224;6.924;2023-05-10T13:05:40;16.63;;;8.60;;
43086;SDS011;28708;52.224;6.924;2023-05-10T13:08:06;18.70;;;9.87;;
43086;SDS011;28708;52.224;6.924;2023-05-10T13:10:32;16.50;;;9.17;;
43086;SDS011;28708;52.224;6.924;2023-05-10T13:12:58;19.80;;;10.37;;
43086;SDS011;28708;52.224;6.924;2023-05-10T13:15:24;19.03;;;9.93;;
43086;SDS011;28708;52.224;6.924;2023-05-10T13:17:50;14.83;;;8.60;;
43086;SDS011;28708;52.224;6.924;2023-05-10T13:20:16;15.40;;;8.93;;
43086;SDS011;28708;52.224;6.924;2023-05-10T13:22:42;15.17;;;8.57;;
43086;SDS011;28708;52.224;6.924;2023-05-10T13:25:09;13.77;;;8.40;;
43086;SDS011;28708;52.224;6.924;2023-05-10T13:27:35;15.03;;;8.07;;
43086;SDS011;28708;52.224;6.924;2023-05-10T13:30:02;15.97;;;9.47;;
43086;SDS011;28708;52.224;6.924;2023-05-10T13:32:28;16.87;;;9.40;;
43086;SDS011;28708;52.224;6.924;2023-05-10T13:34:54;18.40;;;10.27;;
43086;SDS011;28708;52.224;6.924;2023-05-10T13:37:21;17.90;;;10.07;;
43086;SDS011;28708;52.224;6.924;2023-05-10T13:39:46;15.87;;;9.47;;
43086;SDS011;28708;52.224;6.924;2023-05-10T13:42:12;15.77;;;8.90;;
43086;SDS011;28708;52.224;6.924;2023-05-10T13:44:38;17.37;;;9.40;;
43086;SDS011;28708;52.224;6.924;2023-05-10T13:47:04;15.43;;;8.10;;
43086;SDS011;28708;52.224;6.924;2023-05-10T13:49:30;14.10;;;7.70;;
43086;SDS011;28708;52.224;6.924;2023-05-10T13:51:56;16.03;;;7.33;;
43086;SDS011;28708;52.224;6.924;2023-05-10T13:54:21;13.90;;;6.90;;
43086;SDS011;28708;52.224;6.924;2023-05-10T13:56:48;10.67;;;6.87;;
43086;SDS011;28708;52.224;6.924;2023-05-10T13:59:14;12.70;;;7.33;;
43086;SDS011;28708;52.224;6.924;2023-05-10T14:01:40;12.33;;;7.60;;
43086;SDS011;28708;52.224;6.924;2023-05-10T14:04:06;16.13;;;8.10;;
43086;SDS011;28708;52.224;6.924;2023-05-10T14:06:35;11.85;;;7.28;;
43086;SDS011;28708;52.224;6.924;2023-05-10T14:09:01;12.03;;;7.03;;
43086;SDS011;28708;52.224;6.924;2023-05-10T14:11:27;15.57;;;7.07;;
43086;SDS011;28708;52.224;6.924;2023-05-10T14:13:53;18.43;;;6.27;;
43086;SDS011;28708;52.224;6.924;2023-05-10T14:16:19;10.97;;;6.40;;
43086;SDS011;28708;52.224;6.924;2023-05-10T14:18:46;11.80;;;6.17;;
43086;SDS011;28708;52.224;6.924;2023-05-10T14:21:11;13.17;;;7.43;;
43086;SDS011;28708;52.224;6.924;2023-05-10T14:23:37;12.27;;;8.00;;
43086;SDS011;28708;52.224;6.924;2023-05-10T14:26:03;12.63;;;8.20;;
43086;SDS011;28708;52.224;6.924;2023-05-10T14:28:29;13.07;;;7.47;;
43086;SDS011;28708;52.224;6.924;2023-05-10T14:30:54;10.90;;;6.93;;
43086;SDS011;28708;52.224;6.924;2023-05-10T14:33:20;15.33;;;7.27;;
43086;SDS011;28708;52.224;6.924;2023-05-10T14:35:46;14.47;;;7.50;;
43086;SDS011;28708;52.224;6.924;2023-05-10T14:38:12;12.50;;;6.97;;
43086;SDS011;28708;52.224;6.924;2023-05-10T14:40:38;10.07;;;6.60;;
43086;SDS011;28708;52.224;6.924;2023-05-10T14:43:04;11.17;;;6.13;;
43086;SDS011;28708;52.224;6.924;2023-05-10T14:45:29;14.30;;;6.97;;
43086;SDS011;28708;52.224;6.924;2023-05-10T14:47:55;9.23;;;6.30;;
43086;SDS011;28708;52.224;6.924;2023-05-10T14:50:20;10.73;;;5.97;;
43086;SDS011;28708;52.224;6.924;2023-05-10T14:52:46;11.47;;;5.77;;
43086;SDS011;28708;52.224;6.924;2023-05-10T14:55:12;11.07;;;6.27;;
43086;SDS011;28708;52.224;6.924;2023-05-10T14:57:38;13.30;;;6.00;;